sensor_id;sensor_type;location;lat;lon;timestamp;temperature;humidity
45233;DHT22;30969;51.052;17.056;2023-10-19T00:02:41;8.70;65.50
45233;DHT22;30969;51.052;17.056;2023-10-19T00:07:46;8.70;65.40
45233;DHT22;30969;51.052;17.056;2023-10-19T00:12:50;8.70;65.60
45233;DHT22;30969;51.052;17.056;2023-10-19T00:18:02;8.70;65.20
45233;DHT22;30969;51.052;17.056;2023-10-19T00:23:23;8.70;65.30
45233;DHT22;30969;51.052;17.056;2023-10-19T00:28:37;8.60;65.40
45233;DHT22;30969;51.052;17.056;2023-10-19T00:33:41;8.60;65.50
45233;DHT22;30969;51.052;17.056;2023-10-19T00:38:46;8.60;65.40
45233;DHT22;30969;51.052;17.056;2023-10-19T00:43:54;8.60;65.40
45233;DHT22;30969;51.052;17.056;2023-10-19T00:49:05;8.60;65.30
45233;DHT22;30969;51.052;17.056;2023-10-19T00:54:11;8.50;65.20
45233;DHT22;30969;51.052;17.056;2023-10-19T00:59:18;8.50;65.30
45233;DHT22;30969;51.052;17.056;2023-10-19T01:04:24;8.60;65.20
45233;DHT22;30969;51.052;17.056;2023-10-19T01:09:35;8.50;65.10
45233;DHT22;30969;51.052;17.056;2023-10-19T01:14:40;8.50;65.10
45233;DHT22;30969;51.052;17.056;2023-10-19T01:19:44;8.50;65.20
45233;DHT22;30969;51.052;17.056;2023-10-19T01:24:48;8.40;65.30
45233;DHT22;30969;51.052;17.056;2023-10-19T01:29:52;8.40;65.50
45233;DHT22;30969;51.052;17.056;2023-10-19T01:34:55;8.40;65.50
45233;DHT22;30969;51.052;17.056;2023-10-19T01:40:00;8.30;65.70
45233;DHT22;30969;51.052;17.056;2023-10-19T01:45:04;8.30;65.80
45233;DHT22;30969;51.052;17.056;2023-10-19T01:50:08;8.30;65.80
45233;DHT22;30969;51.052;17.056;2023-10-19T01:55:23;8.30;65.70
45233;DHT22;30969;51.052;17.056;2023-10-19T02:00:28;8.30;65.60
45233;DHT22;30969;51.052;17.056;2023-10-19T02:05:31;8.20;65.50
45233;DHT22;30969;51.052;17.056;2023-10-19T02:10:46;8.20;65.60
45233;DHT22;30969;51.052;17.056;2023-10-19T02:15:50;8.20;65.80
45233;DHT22;30969;51.052;17.056;2023-10-19T02:20:54;8.20;65.80
45233;DHT22;30969;51.052;17.056;2023-10-19T02:25:59;8.20;65.70
45233;DHT22;30969;51.052;17.056;2023-10-19T02:31:05;8.10;65.60
45233;DHT22;30969;51.052;17.056;2023-10-19T02:36:17;8.10;65.80
45233;DHT22;30969;51.052;17.056;2023-10-19T02:41:22;8.10;66.10
45233;DHT22;30969;51.052;17.056;2023-10-19T02:46:26;8.10;66.20
45233;DHT22;30969;51.052;17.056;2023-10-19T02:51:30;8.00;66.20
45233;DHT22;30969;51.052;17.056;2023-10-19T02:56:35;8.00;66.20
45233;DHT22;30969;51.052;17.056;2023-10-19T03:01:39;8.00;66.20
45233;DHT22;30969;51.052;17.056;2023-10-19T03:06:46;8.00;66.20
45233;DHT22;30969;51.052;17.056;2023-10-19T03:11:51;8.00;66.20
45233;DHT22;30969;51.052;17.056;2023-10-19T03:16:56;8.00;66.20
45233;DHT22;30969;51.052;17.056;2023-10-19T03:22:01;8.00;66.20
45233;DHT22;30969;51.052;17.056;2023-10-19T03:27:10;7.90;66.20
45233;DHT22;30969;51.052;17.056;2023-10-19T03:32:17;7.90;66.50
45233;DHT22;30969;51.052;17.056;2023-10-19T03:37:24;7.90;66.60
45233;DHT22;30969;51.052;17.056;2023-10-19T03:42:29;7.90;66.70
45233;DHT22;30969;51.052;17.056;2023-10-19T03:47:35;7.90;66.90
45233;DHT22;30969;51.052;17.056;2023-10-19T03:52:41;7.90;66.90
45233;DHT22;30969;51.052;17.056;2023-10-19T03:57:46;7.90;66.80
45233;DHT22;30969;51.052;17.056;2023-10-19T04:02:56;7.90;66.90
45233;DHT22;30969;51.052;17.056;2023-10-19T04:08:01;7.90;66.80
45233;DHT22;30969;51.052;17.056;2023-10-19T04:13:16;7.90;66.80
45233;DHT22;30969;51.052;17.056;2023-10-19T04:18:19;7.90;66.70
45233;DHT22;30969;51.052;17.056;2023-10-19T04:23:24;7.90;66.90
45233;DHT22;30969;51.052;17.056;2023-10-19T04:28:31;7.90;67.00
45233;DHT22;30969;51.052;17.056;2023-10-19T04:33:40;7.90;66.90
45233;DHT22;30969;51.052;17.056;2023-10-19T04:38:48;7.90;66.90
45233;DHT22;30969;51.052;17.056;2023-10-19T04:43:53;7.90;66.80
45233;DHT22;30969;51.052;17.056;2023-10-19T04:48:57;8.00;67.00
45233;DHT22;30969;51.052;17.056;2023-10-19T04:54:00;7.90;66.80
45233;DHT22;30969;51.052;17.056;2023-10-19T04:59:07;7.90;66.80
45233;DHT22;30969;51.052;17.056;2023-10-19T05:04:11;8.00;66.80
45233;DHT22;30969;51.052;17.056;2023-10-19T05:09:15;8.00;66.80
45233;DHT22;30969;51.052;17.056;2023-10-19T05:14:20;8.00;67.00
45233;DHT22;30969;51.052;17.056;2023-10-19T05:19:23;8.00;67.00
45233;DHT22;30969;51.052;17.056;2023-10-19T05:24:27;8.00;66.90
45233;DHT22;30969;51.052;17.056;2023-10-19T05:29:32;8.00;66.90
45233;DHT22;30969;51.052;17.056;2023-10-19T05:34:36;8.00;67.00
45233;DHT22;30969;51.052;17.056;2023-10-19T05:39:39;8.10;67.30
45233;DHT22;30969;51.052;17.056;2023-10-19T05:44:44;8.10;67.10
45233;DHT22;30969;51.052;17.056;2023-10-19T05:49:47;8.10;67.30
45233;DHT22;30969;51.052;17.056;2023-10-19T05:54:51;8.10;67.40
45233;DHT22;30969;51.052;17.056;2023-10-19T05:59:57;8.10;67.40
45233;DHT22;30969;51.052;17.056;2023-10-19T06:05:01;8.10;67.50
45233;DHT22;30969;51.052;17.056;2023-10-19T06:10:07;8.10;67.50
45233;DHT22;30969;51.052;17.056;2023-10-19T06:15:12;8.10;67.60
45233;DHT22;30969;51.052;17.056;2023-10-19T06:20:16;8.10;67.60
45233;DHT22;30969;51.052;17.056;2023-10-19T06:25:26;8.10;67.50
45233;DHT22;30969;51.052;17.056;2023-10-19T06:30:31;8.20;67.40
45233;DHT22;30969;51.052;17.056;2023-10-19T06:35:35;8.20;67.50
45233;DHT22;30969;51.052;17.056;2023-10-19T06:40:39;8.20;67.40
45233;DHT22;30969;51.052;17.056;2023-10-19T06:45:45;8.20;67.40
45233;DHT22;30969;51.052;17.056;2023-10-19T06:50:48;8.30;67.50
45233;DHT22;30969;51.052;17.056;2023-10-19T06:55:54;8.30;67.40
45233;DHT22;30969;51.052;17.056;2023-10-19T07:00:59;8.30;67.40
45233;DHT22;30969;51.052;17.056;2023-10-19T07:06:07;8.30;67.30
45233;DHT22;30969;51.052;17.056;2023-10-19T07:11:15;8.40;67.50
45233;DHT22;30969;51.052;17.056;2023-10-19T07:16:20;8.40;67.50
45233;DHT22;30969;51.052;17.056;2023-10-19T07:21:24;8.40;67.60
45233;DHT22;30969;51.052;17.056;2023-10-19T07:26:32;8.40;67.80
45233;DHT22;30969;51.052;17.056;2023-10-19T07:31:37;8.40;67.90
45233;DHT22;30969;51.052;17.056;2023-10-19T07:36:42;8.50;67.90
45233;DHT22;30969;51.052;17.056;2023-10-19T07:41:45;8.50;68.10
45233;DHT22;30969;51.052;17.056;2023-10-19T07:46:50;8.50;67.90
45233;DHT22;30969;51.052;17.056;2023-10-19T07:51:54;8.60;67.70
45233;DHT22;30969;51.052;17.056;2023-10-19T07:57:00;8.60;67.80
45233;DHT22;30969;51.052;17.056;2023-10-19T08:02:09;8.60;67.70
45233;DHT22;30969;51.052;17.056;2023-10-19T08:07:13;8.70;67.80
45233;DHT22;30969;51.052;17.056;2023-10-19T08:12:16;8.70;67.90
45233;DHT22;30969;51.052;17.056;2023-10-19T08:17:21;8.80;68.10
45233;DHT22;30969;51.052;17.056;2023-10-19T08:22:25;8.80;67.80
45233;DHT22;30969;51.052;17.056;2023-10-19T08:27:29;8.90;67.80
45233;DHT22;30969;51.052;17.056;2023-10-19T08:32:34;8.90;67.70
45233;DHT22;30969;51.052;17.056;2023-10-19T08:37:38;8.90;67.70
45233;DHT22;30969;51.052;17.056;2023-10-19T08:42:42;8.90;68.00
45233;DHT22;30969;51.052;17.056;2023-10-19T08:47:52;9.00;67.80
45233;DHT22;30969;51.052;17.056;2023-10-19T08:52:59;9.00;68.00
45233;DHT22;30969;51.052;17.056;2023-10-19T08:58:03;9.00;68.00
45233;DHT22;30969;51.052;17.056;2023-10-19T09:03:09;9.10;67.90
45233;DHT22;30969;51.052;17.056;2023-10-19T09:08:16;9.10;68.00
45233;DHT22;30969;51.052;17.056;2023-10-19T09:13:21;9.10;67.90
45233;DHT22;30969;51.052;17.056;2023-10-19T09:18:27;9.10;68.10
45233;DHT22;30969;51.052;17.056;2023-10-19T09:23:33;9.20;68.20
45233;DHT22;30969;51.052;17.056;2023-10-19T09:28:37;9.20;68.30
45233;DHT22;30969;51.052;17.056;2023-10-19T09:33:42;9.30;68.50
45233;DHT22;30969;51.052;17.056;2023-10-19T09:38:46;9.30;68.20
45233;DHT22;30969;51.052;17.056;2023-10-19T09:43:52;9.30;68.30
45233;DHT22;30969;51.052;17.056;2023-10-19T09:48:59;9.30;68.30
45233;DHT22;30969;51.052;17.056;2023-10-19T09:54:06;9.40;68.20
45233;DHT22;30969;51.052;17.056;2023-10-19T09:59:13;9.40;68.60
45233;DHT22;30969;51.052;17.056;2023-10-19T10:04:32;9.50;68.20
45233;DHT22;30969;51.052;17.056;2023-10-19T10:09:40;9.50;68.00
45233;DHT22;30969;51.052;17.056;2023-10-19T10:14:55;9.50;67.90
45233;DHT22;30969;51.052;17.056;2023-10-19T10:20:30;9.60;68.00
45233;DHT22;30969;51.052;17.056;2023-10-19T10:25:34;9.60;68.00
45233;DHT22;30969;51.052;17.056;2023-10-19T10:30:37;9.60;68.00
45233;DHT22;30969;51.052;17.056;2023-10-19T10:36:02;9.50;68.30
45233;DHT22;30969;51.052;17.056;2023-10-19T10:41:08;9.70;69.20
45233;DHT22;30969;51.052;17.056;2023-10-19T10:46:15;9.70;69.40
45233;DHT22;30969;51.052;17.056;2023-10-19T10:51:22;9.80;69.70
45233;DHT22;30969;51.052;17.056;2023-10-19T10:56:26;9.80;69.70
45233;DHT22;30969;51.052;17.056;2023-10-19T11:01:31;9.80;69.40
45233;DHT22;30969;51.052;17.056;2023-10-19T11:06:46;9.80;69.50
45233;DHT22;30969;51.052;17.056;2023-10-19T11:11:51;9.80;70.00
45233;DHT22;30969;51.052;17.056;2023-10-19T11:16:56;9.80;69.90
45233;DHT22;30969;51.052;17.056;2023-10-19T11:22:15;9.80;69.90
45233;DHT22;30969;51.052;17.056;2023-10-19T11:27:22;9.80;70.00
45233;DHT22;30969;51.052;17.056;2023-10-19T11:32:35;9.80;70.20
45233;DHT22;30969;51.052;17.056;2023-10-19T11:37:48;9.80;70.70
45233;DHT22;30969;51.052;17.056;2023-10-19T11:42:52;9.80;70.70
45233;DHT22;30969;51.052;17.056;2023-10-19T11:47:58;9.80;70.80
45233;DHT22;30969;51.052;17.056;2023-10-19T11:53:03;9.80;70.90
45233;DHT22;30969;51.052;17.056;2023-10-19T11:58:07;9.80;70.70
45233;DHT22;30969;51.052;17.056;2023-10-19T12:03:13;9.80;71.00
45233;DHT22;30969;51.052;17.056;2023-10-19T12:08:18;9.90;71.10
45233;DHT22;30969;51.052;17.056;2023-10-19T12:13:21;9.80;71.20
45233;DHT22;30969;51.052;17.056;2023-10-19T12:18:26;9.90;71.30
45233;DHT22;30969;51.052;17.056;2023-10-19T12:23:32;9.80;71.20
45233;DHT22;30969;51.052;17.056;2023-10-19T12:28:35;9.90;71.30
45233;DHT22;30969;51.052;17.056;2023-10-19T12:33:40;9.90;71.50
45233;DHT22;30969;51.052;17.056;2023-10-19T12:38:45;9.90;71.80
45233;DHT22;30969;51.052;17.056;2023-10-19T12:43:49;9.90;71.80
45233;DHT22;30969;51.052;17.056;2023-10-19T12:48:55;9.90;72.00
45233;DHT22;30969;51.052;17.056;2023-10-19T12:54:01;10.00;72.40
45233;DHT22;30969;51.052;17.056;2023-10-19T12:59:05;10.00;73.30
45233;DHT22;30969;51.052;17.056;2023-10-19T13:04:09;10.10;73.70
45233;DHT22;30969;51.052;17.056;2023-10-19T13:09:20;10.10;73.60
45233;DHT22;30969;51.052;17.056;2023-10-19T13:14:25;10.10;73.10
45233;DHT22;30969;51.052;17.056;2023-10-19T13:19:28;10.10;72.80
45233;DHT22;30969;51.052;17.056;2023-10-19T13:24:33;10.20;72.80
45233;DHT22;30969;51.052;17.056;2023-10-19T13:29:43;10.20;72.90
45233;DHT22;30969;51.052;17.056;2023-10-19T13:34:49;10.20;73.50
45233;DHT22;30969;51.052;17.056;2023-10-19T13:39:53;10.30;73.70
45233;DHT22;30969;51.052;17.056;2023-10-19T13:44:57;10.30;74.00
45233;DHT22;30969;51.052;17.056;2023-10-19T13:50:01;10.30;73.60
45233;DHT22;30969;51.052;17.056;2023-10-19T13:55:07;10.10;73.10
45233;DHT22;30969;51.052;17.056;2023-10-19T14:00:10;10.40;73.10
45233;DHT22;30969;51.052;17.056;2023-10-19T14:05:21;10.40;72.90
45233;DHT22;30969;51.052;17.056;2023-10-19T14:10:27;10.40;72.60
45233;DHT22;30969;51.052;17.056;2023-10-19T14:15:31;10.50;72.50
45233;DHT22;30969;51.052;17.056;2023-10-19T14:20:36;10.40;72.40
45233;DHT22;30969;51.052;17.056;2023-10-19T14:25:42;10.50;72.50
45233;DHT22;30969;51.052;17.056;2023-10-19T14:30:46;10.50;72.80
45233;DHT22;30969;51.052;17.056;2023-10-19T14:35:54;10.50;72.90
45233;DHT22;30969;51.052;17.056;2023-10-19T14:40:59;10.50;72.90
45233;DHT22;30969;51.052;17.056;2023-10-19T14:46:04;10.50;73.10
45233;DHT22;30969;51.052;17.056;2023-10-19T14:51:08;10.60;72.90
45233;DHT22;30969;51.052;17.056;2023-10-19T14:56:13;10.60;73.10
45233;DHT22;30969;51.052;17.056;2023-10-19T15:01:21;10.60;73.10
45233;DHT22;30969;51.052;17.056;2023-10-19T15:06:28;10.60;73.00
45233;DHT22;30969;51.052;17.056;2023-10-19T15:11:39;10.60;72.70
45233;DHT22;30969;51.052;17.056;2023-10-19T15:16:43;10.60;72.60
45233;DHT22;30969;51.052;17.056;2023-10-19T15:21:47;10.60;72.70
45233;DHT22;30969;51.052;17.056;2023-10-19T15:26:52;10.60;72.70
45233;DHT22;30969;51.052;17.056;2023-10-19T15:31:56;10.70;72.80
45233;DHT22;30969;51.052;17.056;2023-10-19T15:36:59;10.70;72.80
45233;DHT22;30969;51.052;17.056;2023-10-19T15:42:04;10.70;72.80
45233;DHT22;30969;51.052;17.056;2023-10-19T15:47:10;10.70;73.00
45233;DHT22;30969;51.052;17.056;2023-10-19T15:52:14;10.70;73.20
45233;DHT22;30969;51.052;17.056;2023-10-19T15:57:19;10.70;73.00
45233;DHT22;30969;51.052;17.056;2023-10-19T16:02:22;10.70;72.90
45233;DHT22;30969;51.052;17.056;2023-10-19T16:07:26;10.70;73.00
45233;DHT22;30969;51.052;17.056;2023-10-19T16:12:32;10.70;73.00
45233;DHT22;30969;51.052;17.056;2023-10-19T16:17:36;10.70;73.20
45233;DHT22;30969;51.052;17.056;2023-10-19T16:22:41;10.70;73.10
45233;DHT22;30969;51.052;17.056;2023-10-19T16:27:46;10.70;73.20
45233;DHT22;30969;51.052;17.056;2023-10-19T16:32:49;10.70;73.20
45233;DHT22;30969;51.052;17.056;2023-10-19T16:37:53;10.80;73.40
45233;DHT22;30969;51.052;17.056;2023-10-19T16:42:57;10.80;73.40
45233;DHT22;30969;51.052;17.056;2023-10-19T16:48:01;10.80;73.30
45233;DHT22;30969;51.052;17.056;2023-10-19T16:53:05;10.80;73.40
45233;DHT22;30969;51.052;17.056;2023-10-19T16:58:10;10.80;73.40
45233;DHT22;30969;51.052;17.056;2023-10-19T17:03:15;10.80;73.50
45233;DHT22;30969;51.052;17.056;2023-10-19T17:08:19;10.80;73.40
45233;DHT22;30969;51.052;17.056;2023-10-19T17:13:24;10.80;73.20
45233;DHT22;30969;51.052;17.056;2023-10-19T17:18:29;10.80;73.30
45233;DHT22;30969;51.052;17.056;2023-10-19T17:23:32;10.80;73.30
45233;DHT22;30969;51.052;17.056;2023-10-19T17:28:39;10.80;73.30
45233;DHT22;30969;51.052;17.056;2023-10-19T17:33:42;10.80;73.30
45233;DHT22;30969;51.052;17.056;2023-10-19T17:38:46;10.80;73.30
45233;DHT22;30969;51.052;17.056;2023-10-19T17:43:51;10.80;73.50
45233;DHT22;30969;51.052;17.056;2023-10-19T17:48:55;10.80;73.50
45233;DHT22;30969;51.052;17.056;2023-10-19T17:53:58;10.80;73.40
45233;DHT22;30969;51.052;17.056;2023-10-19T17:59:03;10.80;73.30
45233;DHT22;30969;51.052;17.056;2023-10-19T18:04:07;10.80;73.30
45233;DHT22;30969;51.052;17.056;2023-10-19T18:09:11;10.80;73.30
45233;DHT22;30969;51.052;17.056;2023-10-19T18:14:16;10.80;73.50
45233;DHT22;30969;51.052;17.056;2023-10-19T18:19:20;10.80;73.60
45233;DHT22;30969;51.052;17.056;2023-10-19T18:24:23;10.80;73.70
45233;DHT22;30969;51.052;17.056;2023-10-19T18:29:28;10.80;73.90
45233;DHT22;30969;51.052;17.056;2023-10-19T18:34:32;10.80;73.90
45233;DHT22;30969;51.052;17.056;2023-10-19T18:39:36;10.80;74.00
45233;DHT22;30969;51.052;17.056;2023-10-19T18:44:41;10.90;74.00
45233;DHT22;30969;51.052;17.056;2023-10-19T18:49:45;10.80;74.00
45233;DHT22;30969;51.052;17.056;2023-10-19T18:54:48;10.80;74.20
45233;DHT22;30969;51.052;17.056;2023-10-19T18:59:53;10.80;74.10
45233;DHT22;30969;51.052;17.056;2023-10-19T19:04:56;10.90;74.20
45233;DHT22;30969;51.052;17.056;2023-10-19T19:09:59;10.90;74.50
45233;DHT22;30969;51.052;17.056;2023-10-19T19:15:05;10.90;74.70
45233;DHT22;30969;51.052;17.056;2023-10-19T19:20:09;10.90;74.70
45233;DHT22;30969;51.052;17.056;2023-10-19T19:25:14;10.90;74.60
45233;DHT22;30969;51.052;17.056;2023-10-19T19:30:19;10.90;74.50
45233;DHT22;30969;51.052;17.056;2023-10-19T19:35:23;10.90;74.40
45233;DHT22;30969;51.052;17.056;2023-10-19T19:40:26;10.90;74.40
45233;DHT22;30969;51.052;17.056;2023-10-19T19:45:33;10.90;74.30
45233;DHT22;30969;51.052;17.056;2023-10-19T19:50:38;10.90;74.30
45233;DHT22;30969;51.052;17.056;2023-10-19T19:55:44;10.90;74.30
45233;DHT22;30969;51.052;17.056;2023-10-19T20:00:50;10.90;74.20
45233;DHT22;30969;51.052;17.056;2023-10-19T20:05:56;10.90;74.30
45233;DHT22;30969;51.052;17.056;2023-10-19T20:10:59;10.90;74.40
45233;DHT22;30969;51.052;17.056;2023-10-19T20:16:05;10.90;74.40
45233;DHT22;30969;51.052;17.056;2023-10-19T20:21:09;10.90;74.40
45233;DHT22;30969;51.052;17.056;2023-10-19T20:26:16;10.90;74.50
45233;DHT22;30969;51.052;17.056;2023-10-19T20:31:21;10.90;74.50
45233;DHT22;30969;51.052;17.056;2023-10-19T20:36:28;10.90;74.40
45233;DHT22;30969;51.052;17.056;2023-10-19T20:41:32;10.90;74.40
45233;DHT22;30969;51.052;17.056;2023-10-19T20:46:39;10.90;74.30
45233;DHT22;30969;51.052;17.056;2023-10-19T20:51:42;10.90;74.50
45233;DHT22;30969;51.052;17.056;2023-10-19T20:56:46;10.90;74.60
45233;DHT22;30969;51.052;17.056;2023-10-19T21:01:50;10.90;74.50
45233;DHT22;30969;51.052;17.056;2023-10-19T21:06:54;10.80;74.50
45233;DHT22;30969;51.052;17.056;2023-10-19T21:11:58;10.90;74.80
45233;DHT22;30969;51.052;17.056;2023-10-19T21:17:02;10.90;74.80
45233;DHT22;30969;51.052;17.056;2023-10-19T21:22:07;10.90;74.70
45233;DHT22;30969;51.052;17.056;2023-10-19T21:27:11;10.80;74.70
45233;DHT22;30969;51.052;17.056;2023-10-19T21:32:15;10.80;74.80
45233;DHT22;30969;51.052;17.056;2023-10-19T21:37:20;10.90;74.60
45233;DHT22;30969;51.052;17.056;2023-10-19T21:42:24;10.90;74.60
45233;DHT22;30969;51.052;17.056;2023-10-19T21:47:29;10.80;74.50
45233;DHT22;30969;51.052;17.056;2023-10-19T21:52:33;10.80;74.60
45233;DHT22;30969;51.052;17.056;2023-10-19T21:57:36;10.70;74.80
45233;DHT22;30969;51.052;17.056;2023-10-19T22:02:41;10.70;74.80
45233;DHT22;30969;51.052;17.056;2023-10-19T22:08:06;10.80;74.80
45233;DHT22;30969;51.052;17.056;2023-10-19T22:13:13;10.80;74.70
45233;DHT22;30969;51.052;17.056;2023-10-19T22:18:18;10.80;74.80
45233;DHT22;30969;51.052;17.056;2023-10-19T22:23:22;10.80;74.70
45233;DHT22;30969;51.052;17.056;2023-10-19T22:28:25;10.80;74.70
45233;DHT22;30969;51.052;17.056;2023-10-19T22:33:30;10.80;74.60
45233;DHT22;30969;51.052;17.056;2023-10-19T22:38:33;10.80;74.60
45233;DHT22;30969;51.052;17.056;2023-10-19T22:43:37;10.80;74.60
45233;DHT22;30969;51.052;17.056;2023-10-19T22:48:42;10.80;74.60
45233;DHT22;30969;51.052;17.056;2023-10-19T22:53:45;10.80;74.60
45233;DHT22;30969;51.052;17.056;2023-10-19T22:58:49;10.70;74.60
45233;DHT22;30969;51.052;17.056;2023-10-19T23:03:53;10.80;74.70
45233;DHT22;30969;51.052;17.056;2023-10-19T23:08:57;10.80;75.00
45233;DHT22;30969;51.052;17.056;2023-10-19T23:14:00;10.70;75.10
45233;DHT22;30969;51.052;17.056;2023-10-19T23:19:07;10.70;75.10
45233;DHT22;30969;51.052;17.056;2023-10-19T23:24:14;10.70;75.10
45233;DHT22;30969;51.052;17.056;2023-10-19T23:29:18;10.70;75.30
45233;DHT22;30969;51.052;17.056;2023-10-19T23:34:25;10.70;75.40
45233;DHT22;30969;51.052;17.056;2023-10-19T23:39:28;10.70;75.40
45233;DHT22;30969;51.052;17.056;2023-10-19T23:44:35;10.70;75.40
45233;DHT22;30969;51.052;17.056;2023-10-19T23:49:40;10.70;75.40
45233;DHT22;30969;51.052;17.056;2023-10-19T23:54:44;10.70;75.30
45233;DHT22;30969;51.052;17.056;2023-10-19T23:59:50;10.60;75.30
